Time;durP1;ratioP1;P1;durP2;ratioP2;P2;SDS_P1;SDS_P2;PMS_P1;PMS_P2;Temp;Humidity;BMP_temperature;BMP_pressure;BME280_temperature;BME280_humidity;BME280_pressure;Samples;Min_cycle;Max_cycle;Signal;HPM_P1;HPM_P2
2022/01/10 00:05:05;;;;;;;217.67;61.27;;;;;;;-1.06;87.04;100014.56;742333;1155;114142;-80
2022/01/10 00:20:10;;;;;;;181.10;57.45;;;;;;;-1.08;86.77;100029.23;741421;1162;114141;-80
2022/01/10 00:35:12;;;;;;;113.60;37.60;;;;;;;-1.10;86.13;100052.47;739711;1162;114867;-80
2022/01/10 00:50:16;;;;;;;75.83;30.35;;;;;;;-1.17;86.49;100079.41;739740;1155;114243;-80
2022/01/10 01:05:20;;;;;;;84.70;32.83;;;;;;;-1.44;87.51;100115.70;739980;1155;114185;-80
2022/01/10 01:20:44;;;;;;;80.00;31.50;;;;;;;-1.55;86.62;100113.53;741438;1155;114123;-80
2022/01/10 01:35:47;;;;;;;67.88;28.13;;;;;;;-1.74;87.43;100130.60;740700;1162;114039;-80
2022/01/10 01:50:49;;;;;;;68.05;27.15;;;;;;;-1.60;88.10;100151.47;739387;1155;114355;-82
2022/01/10 02:05:51;;;;;;;71.28;26.75;;;;;;;-1.61;88.06;100164.41;739850;1155;114032;-80
2022/01/10 02:20:54;;;;;;;67.40;26.03;;;;;;;-1.63;87.76;100187.63;739570;1162;114142;-80
2022/01/10 02:36:20;;;;;;;80.35;30.48;;;;;;;-1.72;88.31;100237.69;739658;1162;114149;-78
2022/01/10 02:51:23;;;;;;;70.40;28.78;;;;;;;-1.86;86.91;100247.64;741806;1162;114713;-78
2022/01/10 03:06:25;;;;;;;65.00;26.43;;;;;;;-1.96;87.33;100278.02;740098;1155;114034;-79
2022/01/10 03:21:27;;;;;;;59.55;23.98;;;;;;;-1.92;87.89;100284.72;740563;1162;114089;-78
2022/01/10 03:36:30;;;;;;;62.40;24.45;;;;;;;-1.99;87.46;100337.28;740595;1162;113539;-78
2022/01/10 03:51:32;;;;;;;64.88;26.30;;;;;;;-2.12;88.66;100341.17;739855;1155;114163;-78
2022/01/10 04:06:35;;;;;;;101.00;39.00;;;;;;;-2.21;87.35;100368.84;740608;1158;114017;-78
2022/01/10 04:21:37;;;;;;;100.73;36.50;;;;;;;-2.37;87.67;100398.53;739586;1154;114254;-77
2022/01/10 04:36:40;;;;;;;173.78;57.80;;;;;;;-2.53;87.13;100426.45;739511;1155;114352;-78
2022/01/10 04:51:42;;;;;;;154.00;58.28;;;;;;;-2.72;86.71;100439.01;739637;1162;114757;-78
2022/01/10 05:06:45;;;;;;;161.53;58.98;;;;;;;-2.79;86.49;100470.91;740750;1155;114256;-78
2022/01/10 05:21:47;;;;;;;420.83;137.95;;;;;;;-2.94;86.34;100496.15;740554;1155;114308;-77
2022/01/10 05:36:50;;;;;;;408.65;130.15;;;;;;;-3.05;86.38;100522.13;739636;1154;114340;-77
2022/01/10 05:51:52;;;;;;;240.25;78.55;;;;;;;-3.18;85.54;100559.25;739541;1163;114922;-78
2022/01/10 06:06:54;;;;;;;229.13;75.38;;;;;;;-3.27;85.76;100582.59;742802;1154;114368;-85
2022/01/10 06:21:56;;;;;;;319.48;98.28;;;;;;;-3.38;85.73;100626.50;740780;1155;114289;-80
2022/01/10 06:37:01;;;;;;;298.53;95.05;;;;;;;-3.37;85.81;100664.94;740674;1162;114242;-85
2022/01/10 06:52:04;;;;;;;198.53;64.75;;;;;;;-3.29;86.51;100692.98;740171;1162;114232;-82
2022/01/10 07:07:07;;;;;;;185.03;58.18;;;;;;;-3.36;86.36;100717.13;741250;1154;114310;-81
2022/01/10 07:22:09;;;;;;;289.60;83.33;;;;;;;-3.36;86.00;100733.34;740560;1154;114772;-81
2022/01/10 07:37:12;;;;;;;442.33;141.83;;;;;;;-3.18;86.39;100757.75;740661;1154;113682;-83
2022/01/10 07:52:14;;;;;;;159.65;52.10;;;;;;;-2.62;87.47;100771.80;741167;1162;114369;-80
2022/01/10 08:07:19;;;;;;;96.10;35.65;;;;;;;-2.21;87.56;100797.30;740734;1155;115024;-78
2022/01/10 08:22:21;;;;;;;170.40;49.60;;;;;;;-1.59;87.79;100824.72;740293;1162;114703;-75
2022/01/10 08:37:24;;;;;;;136.25;44.08;;;;;;;-0.61;86.65;100861.23;740585;1154;116117;-76
2022/01/10 08:52:26;;;;;;;139.83;48.75;;;;;;;-0.08;83.78;100895.61;741938;1155;114169;-82
2022/01/10 09:07:29;;;;;;;92.23;34.55;;;;;;;0.88;84.13;100928.38;743111;1162;115339;-83
2022/01/10 09:22:32;;;;;;;64.58;26.83;;;;;;;1.67;80.71;100964.98;743213;1162;113651;-88
2022/01/10 09:37:35;;;;;;;188.27;64.57;;;;;;;1.89;78.07;100983.07;744318;1155;114293;-84
2022/01/10 09:52:41;;;;;;;307.55;106.05;;;;;;;1.98;77.42;101018.09;742775;1155;114517;-80
2022/01/10 10:07:43;;;;;;;585.95;188.05;;;;;;;3.06;77.68;101033.39;744573;1154;114562;-82
2022/01/10 10:22:46;;;;;;;78.98;38.13;;;;;;;3.16;75.28;101066.61;743337;1162;115488;-80
2022/01/10 10:37:48;;;;;;;99.23;37.90;;;;;;;3.08;73.02;101084.27;742099;1154;114581;-80
2022/01/10 10:52:51;;;;;;;92.48;37.48;;;;;;;3.23;72.82;101103.48;742063;1154;114150;-79
2022/01/10 11:07:54;;;;;;;75.53;32.53;;;;;;;3.72;70.66;101121.22;742593;1154;114990;-80
2022/01/10 11:22:58;;;;;;;113.83;44.18;;;;;;;4.42;71.46;101142.16;742308;1162;114123;-80
2022/01/10 11:38:16;;;;;;;111.48;45.75;;;;;;;4.99;69.73;101156.70;742867;1154;114114;-80
2022/01/10 11:53:18;;;;;;;89.98;37.40;;;;;;;5.33;68.58;101165.34;743193;1162;113919;-79
2022/01/10 12:08:21;;;;;;;59.75;24.80;;;;;;;6.29;68.60;101194.95;743152;1162;115312;-87
2022/01/10 12:23:23;;;;;;;80.20;33.30;;;;;;;7.13;67.44;101226.77;744568;1154;114150;-80
2022/01/10 12:38:25;;;;;;;131.30;52.08;;;;;;;7.10;66.05;101261.70;743949;1155;115377;-81
2022/01/10 12:53:27;;;;;;;65.80;29.18;;;;;;;6.96;64.46;101290.36;742441;1154;114355;-79
2022/01/10 13:08:36;;;;;;;58.15;27.33;;;;;;;9.78;63.92;101315.61;740604;1154;113843;-80
2022/01/10 13:23:38;;;;;;;112.28;50.63;;;;;;;11.41;59.47;101323.28;742795;1156;113801;-82
2022/01/10 13:38:41;;;;;;;120.78;50.58;;;;;;;12.22;58.35;101352.20;742122;1154;114305;-82
2022/01/10 13:53:48;;;;;;;137.35;45.23;;;;;;;11.55;56.61;101366.93;742243;1162;115395;-80
2022/01/10 14:08:51;;;;;;;194.70;67.68;;;;;;;5.94;58.46;101400.05;742296;1154;114271;-81
2022/01/10 14:23:53;;;;;;;454.37;132.37;;;;;;;4.03;59.97;101433.14;742575;1154;114561;-83
2022/01/10 14:38:55;;;;;;;551.75;172.13;;;;;;;2.92;61.14;101462.55;741910;1154;114191;-84
2022/01/10 14:53:58;;;;;;;497.25;193.38;;;;;;;2.23;63.50;101485.73;743068;1154;115011;-83
2022/01/10 15:09:00;;;;;;;569.18;195.60;;;;;;;1.63;64.83;101509.23;742995;1162;114960;-83
2022/01/10 15:24:03;;;;;;;439.30;141.70;;;;;;;1.06;66.49;101539.37;743302;1154;114090;-84
2022/01/10 15:39:05;;;;;;;383.00;124.83;;;;;;;0.61;67.49;101561.24;745676;1162;114474;-83
2022/01/10 15:54:07;;;;;;;408.93;139.23;;;;;;;0.29;68.65;101583.53;741409;1162;114023;-82
2022/01/10 16:09:10;;;;;;;472.48;178.50;;;;;;;0.00;69.84;101608.33;740662;1154;114449;-84
2022/01/10 16:24:13;;;;;;;327.03;126.20;;;;;;;-0.20;69.97;101635.41;741717;1154;114963;-86
2022/01/10 16:39:16;;;;;;;300.25;117.95;;;;;;;-0.31;70.03;101650.25;741525;1162;114977;-85
2022/01/10 16:54:19;;;;;;;314.33;113.95;;;;;;;-0.43;71.81;101663.41;741746;1155;115571;-85
2022/01/10 17:09:24;;;;;;;353.73;117.43;;;;;;;-0.38;71.88;101689.95;741713;1162;115569;-86
2022/01/10 17:24:27;;;;;;;322.08;105.60;;;;;;;-0.49;72.93;101710.77;740807;1155;114550;-83
2022/01/10 17:39:29;;;;;;;288.88;101.68;;;;;;;-0.43;73.52;101733.86;740618;1162;116231;-84
2022/01/10 17:54:31;;;;;;;365.83;113.63;;;;;;;-0.71;73.30;101739.53;741754;1162;114497;-83
2022/01/10 18:09:34;;;;;;;357.50;115.10;;;;;;;-1.03;73.17;101758.97;741081;1162;114786;-84
2022/01/10 18:24:37;;;;;;;403.00;121.37;;;;;;;-1.46;73.13;101774.23;741503;1162;114546;-83
2022/01/10 18:39:39;;;;;;;441.50;142.63;;;;;;;-1.92;73.90;101786.80;742032;1154;114766;-84
2022/01/10 18:54:42;;;;;;;506.03;178.33;;;;;;;-2.00;73.90;101814.34;741348;1162;115208;-84
2022/01/10 19:09:44;;;;;;;834.97;317.40;;;;;;;-2.18;74.66;101834.25;743330;1155;114328;-82
2022/01/10 19:24:47;;;;;;;542.38;174.48;;;;;;;-2.24;74.95;101836.88;740623;1162;115482;-81
2022/01/10 19:39:50;;;;;;;347.15;106.73;;;;;;;-2.48;75.80;101861.09;740792;1154;114558;-83
2022/01/10 19:54:52;;;;;;;421.60;126.83;;;;;;;-2.48;75.40;101883.36;740551;1155;114322;-85
2022/01/10 20:09:59;;;;;;;417.43;115.53;;;;;;;-2.85;75.38;101905.03;740739;1154;114550;-83
2022/01/10 20:25:06;;;;;;;404.30;121.30;;;;;;;-3.04;75.32;101924.84;740752;1156;114608;-84
2022/01/10 20:40:09;;;;;;;305.38;88.85;;;;;;;-3.03;75.24;101947.94;741115;1154;114658;-85
2022/01/10 20:55:12;;;;;;;406.08;115.10;;;;;;;-3.25;74.90;101972.84;740787;1154;114994;-83
2022/01/10 21:10:19;;;;;;;442.48;132.40;;;;;;;-3.53;75.32;101979.78;741097;1162;114321;-86
2022/01/10 21:25:21;;;;;;;464.65;142.63;;;;;;;-3.52;75.46;102005.44;741165;1162;114770;-89
2022/01/10 21:40:26;;;;;;;500.65;150.33;;;;;;;-3.53;75.45;102020.84;742313;1154;115148;-85
2022/01/10 21:55:29;;;;;;;575.20;183.08;;;;;;;-3.69;75.23;102028.55;741817;1155;114346;-86
2022/01/10 22:10:32;;;;;;;614.85;202.58;;;;;;;-3.81;75.67;102043.08;741310;1154;114825;-88
2022/01/10 22:25:34;;;;;;;587.73;185.23;;;;;;;-3.95;75.30;102054.20;741472;1154;114362;-87
2022/01/10 22:40:37;;;;;;;475.43;148.67;;;;;;;-4.16;75.73;102061.88;741687;1154;115481;-85
2022/01/10 22:55:40;;;;;;;507.83;165.00;;;;;;;-4.25;75.94;102071.27;740953;1162;115250;-87
2022/01/10 23:10:42;;;;;;;549.63;170.90;;;;;;;-4.45;74.81;102067.79;741127;1154;115242;-86
2022/01/10 23:25:45;;;;;;;653.83;219.03;;;;;;;-4.55;73.93;102075.45;741355;1154;115238;-86
2022/01/10 23:40:48;;;;;;;586.93;197.77;;;;;;;-4.68;75.11;102091.63;747717;1162;115756;-86
2022/01/10 23:55:51;;;;;;;617.68;202.55;;;;;;;-4.73;74.77;102096.71;742604;1162;114610;-85
